Terminal Aerodrome Forecast
Issued by NWS Sioux Falls, SD

Home | Current Version | Previous Version | Text Only | Print | Product List | Glossary On
Versions: 1 2 3 4 5 6 7 8 9 10 11 12 13 14 15 16 17 18 19 20 21 22 23 24 25 26 27 28 29 30 31 32
948
FTUS43 KFSD 261201 AAA
TAFSUX
TAF AMD
KSUX 261201Z 2612/2712 13006KT 6SM -SHRA OVC080
     FM261400 16009KT P6SM SHRA OVC100
     FM261800 06010G15KT P6SM OVC027
     FM262100 04011G17KT P6SM OVC030
     FM262200 03010KT P6SM BKN040
     FM270300 01006KT P6SM SCT070=

USA.gov is the U.S. government's official web portal to all federal, state and local government web resources and services.